Time;durP1;ratioP1;P1;durP2;ratioP2;P2;SDS_P1;SDS_P2;PMS_P1;PMS_P2;Temp;Humidity;BMP_temperature;BMP_pressure;BME280_temperature;BME280_humidity;BME280_pressure;Samples;Min_cycle;Max_cycle;Signal;HPM_P1;HPM_P2
2022/12/22 03:27:10;;;;;;;122.30;31.80;;;;;;;6.81;100.00;100334.41;5095455;28;20173;-82
2022/12/22 03:29:36;;;;;;;125.97;31.95;;;;;;;6.78;100.00;100327.56;5094965;28;20055;-80
2022/12/22 03:32:01;;;;;;;123.72;32.28;;;;;;;6.78;100.00;100329.38;5076985;28;20032;-81
2022/12/22 03:34:27;;;;;;;129.85;32.60;;;;;;;6.76;100.00;100334.75;5094910;28;20032;-81
2022/12/22 03:36:52;;;;;;;116.90;30.33;;;;;;;6.78;100.00;100334.66;5095088;28;20034;-81
2022/12/22 03:39:17;;;;;;;117.85;30.55;;;;;;;6.80;100.00;100335.38;5094793;28;20028;-81
2022/12/22 03:47:10;;;;;;;111.43;28.90;;;;;;;6.87;100.00;100339.19;5095022;28;20097;-80
2022/12/22 03:49:36;;;;;;;118.88;29.23;;;;;;;6.87;100.00;100347.94;5094956;28;20480;-80
2022/12/22 03:52:01;;;;;;;106.40;27.77;;;;;;;6.92;100.00;100349.38;5094868;28;20028;-80
2022/12/22 03:54:26;;;;;;;99.82;27.55;;;;;;;6.97;100.00;100352.47;5094555;28;20046;-81
2022/12/22 03:56:52;;;;;;;83.32;25.67;;;;;;;7.04;100.00;100351.00;5093816;28;20028;-81
2022/12/22 03:59:18;;;;;;;81.88;25.17;;;;;;;7.09;100.00;100358.53;5094444;28;20107;-80
2022/12/22 04:01:49;;;;;;;82.97;25.67;;;;;;;7.06;100.00;100360.50;5094409;28;20119;-80
2022/12/22 04:04:17;;;;;;;73.80;23.85;;;;;;;7.06;100.00;100363.13;5094933;28;20031;-80
2022/12/22 04:06:42;;;;;;;73.68;21.88;;;;;;;7.07;100.00;100356.84;5094279;28;20371;-80
2022/12/22 04:09:07;;;;;;;60.28;21.25;;;;;;;7.07;100.00;100358.69;5094206;28;20056;-81
2022/12/22 04:14:17;;;;;;;53.20;18.55;;;;;;;7.02;100.00;100361.72;5094856;28;20043;-81
2022/12/22 04:16:43;;;;;;;56.20;19.13;;;;;;;6.98;100.00;100357.63;5094294;28;20028;-81
2022/12/22 04:19:08;;;;;;;61.55;20.05;;;;;;;6.94;100.00;100355.38;5094504;28;20467;-81
2022/12/22 04:21:35;;;;;;;63.80;20.38;;;;;;;6.92;100.00;100357.31;5094232;28;20055;-81
2022/12/22 04:24:01;;;;;;;72.90;20.60;;;;;;;6.87;100.00;100370.91;5094058;28;20502;-80
2022/12/22 04:26:27;;;;;;;73.95;19.00;;;;;;;6.85;100.00;100371.06;5094203;28;20031;-81
2022/12/22 04:28:52;;;;;;;77.35;18.25;;;;;;;6.81;100.00;100372.25;5093829;28;20028;-81
2022/12/22 04:31:19;;;;;;;77.13;18.15;;;;;;;6.79;100.00;100370.69;5094310;28;20028;-82
2022/12/22 04:33:45;;;;;;;80.50;18.30;;;;;;;6.74;100.00;100376.38;5094155;28;20028;-81
2022/12/22 04:36:11;;;;;;;110.32;18.02;;;;;;;6.71;100.00;100372.16;5094022;28;20506;-81
2022/12/22 04:38:36;;;;;;;60.67;17.77;;;;;;;6.69;100.00;100376.75;5093833;28;20038;-81
2022/12/22 04:41:02;;;;;;;104.55;17.05;;;;;;;6.62;100.00;100370.28;5093836;28;20028;-81
2022/12/22 04:43:28;;;;;;;61.55;14.10;;;;;;;6.61;100.00;100365.13;5093901;28;20020;-82
2022/12/22 04:45:54;;;;;;;77.82;12.60;;;;;;;6.53;100.00;100363.09;5093812;28;20092;-82
2022/12/22 04:48:20;;;;;;;45.20;12.35;;;;;;;6.53;100.00;100368.38;5093979;28;20055;-82
2022/12/22 04:50:50;;;;;;;97.50;14.15;;;;;;;6.49;100.00;100373.09;5094095;28;20110;-80
2022/12/22 04:53:15;;;;;;;52.78;13.02;;;;;;;6.47;100.00;100377.63;5094022;28;20095;-81
2022/12/22 04:55:46;;;;;;;55.90;11.57;;;;;;;6.46;100.00;100385.69;5076227;28;20461;-82
2022/12/22 04:58:11;;;;;;;82.60;12.95;;;;;;;6.45;100.00;100399.88;5093588;28;20469;-82
2022/12/22 05:00:37;;;;;;;64.00;11.68;;;;;;;6.41;100.00;100388.72;5093672;28;20035;-81
2022/12/22 05:03:02;;;;;;;63.85;12.43;;;;;;;6.38;100.00;100388.97;5093237;28;20036;-81
2022/12/22 05:05:27;;;;;;;47.55;10.95;;;;;;;6.36;100.00;100388.25;5093647;28;20028;-81
2022/12/22 05:07:53;;;;;;;55.08;11.38;;;;;;;6.34;100.00;100409.53;5093431;28;20036;-81
2022/12/22 05:10:18;;;;;;;41.55;9.80;;;;;;;6.32;100.00;100415.88;5093680;28;20052;-81
2022/12/22 05:12:55;;;;;;;63.38;11.52;;;;;;;6.29;100.00;100406.38;5075425;28;20070;-82
2022/12/22 05:15:30;;;;;;;47.15;11.32;;;;;;;6.27;100.00;100410.97;5093911;28;20038;-82
2022/12/22 05:17:56;;;;;;;51.75;12.25;;;;;;;6.27;100.00;100416.25;5093330;28;20488;-81
2022/12/22 05:20:22;;;;;;;48.58;11.85;;;;;;;6.28;100.00;100412.63;5093553;28;20127;-82
2022/12/22 05:22:48;;;;;;;61.97;12.02;;;;;;;6.23;100.00;100409.50;5093394;28;20107;-82
2022/12/22 05:25:17;;;;;;;47.45;12.15;;;;;;;6.16;100.00;100409.16;5092928;28;20089;-81
2022/12/22 05:27:48;;;;;;;49.55;12.80;;;;;;;6.11;100.00;100418.41;5093423;28;20090;-82
2022/12/22 05:30:15;;;;;;;46.75;12.63;;;;;;;6.08;100.00;100408.09;5093244;28;20122;-82
2022/12/22 05:32:41;;;;;;;49.33;13.20;;;;;;;6.03;100.00;100415.53;5075471;28;20428;-82
2022/12/22 05:35:07;;;;;;;44.90;13.00;;;;;;;5.95;100.00;100416.09;5093232;28;20063;-82
2022/12/22 05:37:33;;;;;;;46.15;12.85;;;;;;;5.88;100.00;100414.88;5093269;28;20056;-83
2022/12/22 05:39:59;;;;;;;45.90;13.27;;;;;;;5.86;100.00;100407.09;5093195;28;20111;-83
2022/12/22 05:42:36;;;;;;;41.95;13.00;;;;;;;5.87;100.00;100424.63;5092946;28;20083;-82
2022/12/22 05:45:13;;;;;;;56.88;13.63;;;;;;;5.86;100.00;100420.28;5093193;28;20460;-82
2022/12/22 05:47:39;;;;;;;52.72;12.70;;;;;;;5.86;100.00;100432.66;5093011;28;20064;-82
2022/12/22 05:50:06;;;;;;;46.75;12.75;;;;;;;5.79;100.00;100433.13;5093007;28;20081;-82
2022/12/22 05:52:31;;;;;;;41.63;12.07;;;;;;;5.70;100.00;100428.53;5092686;28;20468;-81
2022/12/22 05:54:57;;;;;;;45.58;13.45;;;;;;;5.63;100.00;100432.63;5092947;28;20064;-81
2022/12/22 05:57:22;;;;;;;37.08;12.18;;;;;;;5.55;100.00;100425.25;5093411;28;20036;-81
2022/12/22 05:59:48;;;;;;;47.53;12.32;;;;;;;5.47;100.00;100423.22;5093174;28;20028;-81
2022/12/22 06:02:13;;;;;;;41.15;11.82;;;;;;;5.40;100.00;100429.91;5092947;28;20036;-81
2022/12/22 06:04:38;;;;;;;45.38;13.00;;;;;;;5.36;100.00;100425.84;5092834;28;20028;-82
2022/12/22 06:07:04;;;;;;;44.90;12.65;;;;;;;5.32;100.00;100434.09;5093493;28;20074;-81
2022/12/22 06:09:29;;;;;;;29.63;11.38;;;;;;;5.30;100.00;100432.41;5092999;28;20052;-81
2022/12/22 06:11:54;;;;;;;34.38;11.38;;;;;;;5.24;100.00;100455.75;5092872;28;20082;-81
2022/12/22 06:14:20;;;;;;;36.47;10.32;;;;;;;5.18;100.00;100458.84;5093094;28;20040;-80
2022/12/22 06:16:45;;;;;;;30.08;10.95;;;;;;;5.18;100.00;100462.34;5093019;28;20028;-81
2022/12/22 06:19:10;;;;;;;29.23;10.05;;;;;;;5.20;100.00;100463.06;5093668;28;20385;-81
2022/12/22 06:21:36;;;;;;;30.23;10.48;;;;;;;5.19;100.00;100464.00;5096675;28;20380;-81
2022/12/22 06:24:03;;;;;;;33.58;10.60;;;;;;;5.19;100.00;100463.19;5096587;28;20028;-81
2022/12/22 06:26:28;;;;;;;29.25;9.85;;;;;;;5.17;100.00;100476.47;5096714;28;20083;-81
2022/12/22 06:28:54;;;;;;;30.15;10.40;;;;;;;5.17;100.00;100478.28;5096299;28;20468;-81
2022/12/22 06:31:19;;;;;;;24.08;9.13;;;;;;;5.17;100.00;100476.47;5095950;28;20117;-78
2022/12/22 06:33:45;;;;;;;29.73;8.63;;;;;;;5.23;100.00;100469.91;5096216;28;20036;-79
2022/12/22 06:36:10;;;;;;;27.83;9.52;;;;;;;5.27;100.00;100480.13;5095784;28;20089;-78
2022/12/22 06:38:36;;;;;;;25.85;8.43;;;;;;;5.32;100.00;100492.16;5095431;28;20063;-79
2022/12/22 06:41:01;;;;;;;25.85;8.88;;;;;;;5.34;100.00;100495.50;5095918;28;20032;-80
2022/12/22 06:43:27;;;;;;;28.90;8.05;;;;;;;5.34;100.00;100490.22;5077434;28;20111;-79
2022/12/22 06:45:52;;;;;;;20.48;7.50;;;;;;;5.29;100.00;100485.28;5077719;28;20046;-79
2022/12/22 06:48:17;;;;;;;27.38;7.78;;;;;;;5.30;100.00;100489.63;5095975;28;20460;-81
2022/12/22 06:50:43;;;;;;;23.35;7.93;;;;;;;5.25;100.00;100486.47;5096229;28;20097;-77
2022/12/22 06:53:09;;;;;;;25.73;8.32;;;;;;;5.16;100.00;100495.88;5095816;28;20123;-80
2022/12/22 06:55:35;;;;;;;20.42;7.25;;;;;;;5.08;100.00;100503.53;5096772;28;20032;-83
2022/12/22 06:58:01;;;;;;;22.45;6.80;;;;;;;5.02;100.00;100507.47;5095824;28;20475;-81
2022/12/22 07:00:26;;;;;;;21.17;6.57;;;;;;;4.95;100.00;100498.31;5077198;28;20036;-79
2022/12/22 07:02:52;;;;;;;22.05;6.55;;;;;;;4.86;100.00;100494.53;5095216;28;20039;-80
2022/12/22 07:05:17;;;;;;;18.52;6.15;;;;;;;4.76;100.00;100494.38;5095213;28;20028;-80
2022/12/22 07:07:42;;;;;;;17.02;6.13;;;;;;;4.70;100.00;100499.22;5095178;28;20032;-78
2022/12/22 07:10:08;;;;;;;23.45;6.15;;;;;;;4.71;100.00;100500.91;5094871;28;20496;-80
2022/12/22 07:12:34;;;;;;;20.23;5.97;;;;;;;4.65;100.00;100507.47;5095132;28;20032;-80
2022/12/22 07:14:59;;;;;;;17.65;6.05;;;;;;;4.55;100.00;100511.69;5095489;28;20032;-80
2022/12/22 07:17:24;;;;;;;16.88;5.50;;;;;;;4.44;100.00;100514.25;5095486;28;20032;-80
2022/12/22 07:19:50;;;;;;;15.80;5.70;;;;;;;4.33;100.00;100512.34;5094692;28;20039;-81
2022/12/22 07:22:15;;;;;;;14.15;5.85;;;;;;;4.22;100.00;100519.22;5094874;28;20028;-80
2022/12/22 07:24:40;;;;;;;16.23;6.07;;;;;;;4.14;100.00;100512.81;5094712;28;20379;-80
2022/12/22 07:27:06;;;;;;;14.93;5.78;;;;;;;4.12;100.00;100522.56;5095088;28;20028;-80
2022/12/22 07:29:31;;;;;;;16.52;5.82;;;;;;;4.17;100.00;100526.59;5094655;28;20059;-80
2022/12/22 07:31:57;;;;;;;22.25;6.45;;;;;;;4.17;100.00;100528.38;5093753;28;20533;-79
2022/12/22 07:34:22;;;;;;;13.65;5.05;;;;;;;4.15;100.00;100535.53;5094954;28;20429;-79
2022/12/22 07:36:47;;;;;;;16.80;4.95;;;;;;;4.16;100.00;100542.50;5094948;28;20032;-80
2022/12/22 07:39:13;;;;;;;13.45;5.40;;;;;;;4.22;100.00;100540.31;5076481;28;20510;-79
2022/12/22 07:44:23;;;;;;;12.23;4.22;;;;;;;4.15;100.00;100549.56;5094458;28;20105;-79
2022/12/22 07:46:48;;;;;;;15.50;5.07;;;;;;;4.14;100.00;100563.66;5094364;28;20036;-79
2022/12/22 07:51:58;;;;;;;9.45;3.97;;;;;;;4.03;100.00;100555.63;5094357;28;20395;-78
2022/12/22 07:54:25;;;;;;;14.27;4.40;;;;;;;3.94;100.00;100554.50;5094384;28;20118;-79
2022/12/22 07:56:50;;;;;;;11.15;4.45;;;;;;;3.85;100.00;100563.84;5093932;28;20438;-77
2022/12/22 07:59:16;;;;;;;11.77;4.68;;;;;;;3.78;100.00;100574.88;5094087;28;20048;-77
2022/12/22 08:01:42;;;;;;;12.80;4.43;;;;;;;3.69;100.00;100569.28;5094400;28;20416;-82
2022/12/22 08:04:08;;;;;;;13.75;4.70;;;;;;;3.63;100.00;100567.06;5075910;28;20046;-79
2022/12/22 08:06:34;;;;;;;13.50;5.57;;;;;;;3.58;100.00;100576.19;5093950;28;20047;-79
2022/12/22 08:09:00;;;;;;;11.38;5.28;;;;;;;3.51;100.00;100575.75;5093555;28;20031;-78
2022/12/22 08:11:26;;;;;;;12.02;5.70;;;;;;;3.42;100.00;100577.19;5094810;28;20148;-81
2022/12/22 08:13:51;;;;;;;17.95;5.30;;;;;;;3.35;100.00;100602.19;5094501;28;20129;-79
2022/12/22 08:16:18;;;;;;;13.02;6.10;;;;;;;3.31;100.00;100605.97;5093763;28;20111;-80
2022/12/22 08:18:43;;;;;;;21.95;6.25;;;;;;;3.30;100.00;100615.66;5075872;28;20144;-79
2022/12/22 08:21:09;;;;;;;15.60;5.43;;;;;;;3.30;100.00;100613.00;5093878;28;20480;-74
2022/12/22 08:23:35;;;;;;;15.40;6.32;;;;;;;3.34;100.00;100616.28;5093772;28;20054;-79
2022/12/22 08:26:09;;;;;;;24.25;7.57;;;;;;;3.41;100.00;100620.22;5094204;28;20047;-79
2022/12/22 08:28:40;;;;;;;19.33;7.07;;;;;;;3.45;100.00;100619.06;5093783;28;20028;-78
2022/12/22 08:31:06;;;;;;;17.60;6.40;;;;;;;3.48;100.00;100618.03;5093834;28;20035;-78
2022/12/22 08:33:32;;;;;;;15.70;6.90;;;;;;;3.48;100.00;100621.50;5093513;28;20046;-77
2022/12/22 08:35:58;;;;;;;14.55;6.47;;;;;;;3.49;100.00;100622.34;5094386;28;20032;-81
2022/12/22 08:38:23;;;;;;;17.88;6.35;;;;;;;3.49;100.00;100622.34;5075473;28;20028;-78
2022/12/22 08:40:49;;;;;;;17.05;6.22;;;;;;;3.53;100.00;100621.22;5093838;28;20028;-77
2022/12/22 08:43:17;;;;;;;17.80;6.45;;;;;;;3.58;100.00;100629.63;5093031;28;20364;-79
2022/12/22 08:45:42;;;;;;;16.63;6.35;;;;;;;3.66;100.00;100645.78;5093592;28;20107;-80
2022/12/22 08:48:09;;;;;;;23.70;6.40;;;;;;;3.73;100.00;100633.06;5093441;28;20123;-79
2022/12/22 08:50:35;;;;;;;16.63;6.10;;;;;;;3.75;100.00;100628.56;5093711;28;20498;-80
2022/12/22 08:53:05;;;;;;;16.52;6.28;;;;;;;3.81;100.00;100628.16;5095891;28;20032;-80
2022/12/22 08:55:31;;;;;;;21.52;7.63;;;;;;;3.89;100.00;100633.75;5076818;28;20031;-79
2022/12/22 08:57:57;;;;;;;19.20;7.03;;;;;;;3.94;100.00;100635.25;5094075;28;20032;-80
2022/12/22 09:00:23;;;;;;;14.55;7.53;;;;;;;4.00;100.00;100642.72;5092952;28;20103;-79
2022/12/22 09:02:48;;;;;;;21.83;8.35;;;;;;;4.06;100.00;100650.22;5092760;28;20043;-80
2022/12/22 09:05:13;;;;;;;19.80;7.68;;;;;;;4.14;100.00;100647.09;5093001;28;20043;-79
2022/12/22 09:07:40;;;;;;;21.60;7.93;;;;;;;4.22;100.00;100655.31;5093078;28;20516;-80
2022/12/22 09:10:07;;;;;;;21.85;8.57;;;;;;;4.31;100.00;100661.75;5093341;28;20056;-79
2022/12/22 09:12:33;;;;;;;19.88;7.75;;;;;;;4.36;100.00;100655.25;5093270;28;20063;-80
2022/12/22 09:14:59;;;;;;;18.55;7.28;;;;;;;4.39;100.00;100657.66;5093470;28;20114;-77
2022/12/22 09:17:24;;;;;;;24.52;8.23;;;;;;;4.42;100.00;100646.09;5093027;28;20484;-81
2022/12/22 09:19:50;;;;;;;27.00;8.20;;;;;;;4.46;100.00;100647.53;5093728;28;20476;-77
2022/12/22 09:22:15;;;;;;;22.75;8.07;;;;;;;4.52;100.00;100652.44;5093439;28;20028;-80
2022/12/22 09:24:40;;;;;;;18.45;7.60;;;;;;;4.55;100.00;100646.94;5092668;28;20032;-79
2022/12/22 09:27:07;;;;;;;25.52;7.75;;;;;;;4.63;100.00;100656.09;5093401;28;20036;-79
2022/12/22 09:29:34;;;;;;;17.45;6.70;;;;;;;4.69;100.00;100651.25;5093083;28;20032;-79
2022/12/22 09:32:00;;;;;;;23.27;7.20;;;;;;;4.80;100.00;100661.06;5092883;28;20430;-78
2022/12/22 09:34:25;;;;;;;17.02;6.28;;;;;;;4.93;100.00;100658.41;5075295;28;20047;-75
2022/12/22 09:36:50;;;;;;;16.25;6.07;;;;;;;5.07;100.00;100668.00;5093058;28;20031;-76
2022/12/22 09:39:16;;;;;;;17.30;5.78;;;;;;;5.21;100.00;100678.44;5093020;28;20036;-76
2022/12/22 09:41:50;;;;;;;18.90;6.15;;;;;;;5.29;100.00;100667.31;5093905;28;20024;-79
2022/12/22 09:44:35;;;;;;;15.75;5.00;;;;;;;5.40;100.00;100670.03;5093174;28;20031;-74
2022/12/22 09:47:08;;;;;;;16.17;5.50;;;;;;;5.47;100.00;100673.91;5093130;28;20123;-75
2022/12/22 09:49:35;;;;;;;10.18;4.30;;;;;;;5.56;100.00;100679.50;5093223;28;20085;-75
2022/12/22 09:52:02;;;;;;;19.50;4.93;;;;;;;5.61;100.00;100682.63;5093626;28;20032;-76
2022/12/22 09:54:28;;;;;;;17.20;4.70;;;;;;;5.68;100.00;100691.81;5093859;28;20028;-78
2022/12/22 09:56:55;;;;;;;22.98;4.90;;;;;;;5.77;100.00;100685.84;5096997;28;20043;-76
2022/12/22 09:59:24;;;;;;;14.05;4.63;;;;;;;5.83;100.00;100688.03;5097087;28;20329;-76
2022/12/22 10:02:03;;;;;;;9.45;3.80;;;;;;;5.91;100.00;100684.00;5096810;28;20475;-76
2022/12/22 10:04:54;;;;;;;14.93;4.20;;;;;;;5.99;100.00;100689.59;5096642;28;20397;-76
2022/12/22 10:07:32;;;;;;;;;;;;;;;6.06;100.00;100687.34;5097419;28;20060;-76
2022/12/22 10:10:23;;;;;;;15.18;3.72;;;;;;;6.13;100.00;100689.41;5096664;28;19923;-76
2022/12/22 10:12:49;;;;;;;11.95;5.22;;;;;;;6.17;100.00;100690.03;5083128;28;20040;-76
2022/12/22 10:15:15;;;;;;;21.55;4.68;;;;;;;6.22;100.00;100689.69;5096480;28;20078;-76
2022/12/22 10:17:41;;;;;;;14.95;4.18;;;;;;;6.29;100.00;100696.22;5096670;28;20032;-76
2022/12/22 10:20:26;;;;;;;14.50;4.57;;;;;;;6.35;100.00;100691.28;5096400;28;20020;-76
2022/12/22 10:23:01;;;;;;;15.57;4.68;;;;;;;6.47;100.00;100699.28;5096617;28;20039;-76
2022/12/22 10:25:33;;;;;;;10.40;4.35;;;;;;;6.55;100.00;100701.31;5096408;28;20376;-76
2022/12/22 10:28:02;;;;;;;14.05;4.50;;;;;;;6.63;100.00;100698.97;5096391;28;20020;-76
2022/12/22 10:30:33;;;;;;;10.90;4.40;;;;;;;6.79;100.00;100690.66;5096072;28;20506;-77
2022/12/22 10:33:02;;;;;;;9.15;4.32;;;;;;;6.82;100.00;100693.94;5096139;28;20028;-76
2022/12/22 10:35:41;;;;;;;10.75;4.28;;;;;;;6.89;100.00;100702.22;5095983;28;20039;-76
2022/12/22 10:38:24;;;;;;;9.82;4.32;;;;;;;6.94;100.00;100710.66;5096108;28;20028;-76
2022/12/22 10:40:54;;;;;;;9.93;3.90;;;;;;;7.02;100.00;100710.91;5096004;28;20028;-77
2022/12/22 10:43:26;;;;;;;7.10;3.35;;;;;;;7.03;100.00;100709.09;5096163;28;20066;-76
2022/12/22 10:45:54;;;;;;;14.82;3.67;;;;;;;7.05;100.00;100713.31;5096682;28;20423;-76
2022/12/22 10:48:37;;;;;;;9.02;3.67;;;;;;;7.15;100.00;100704.66;5095686;28;20028;-76
2022/12/22 10:51:08;;;;;;;9.10;3.55;;;;;;;7.28;100.00;100707.19;5096114;28;20028;-76
2022/12/22 10:53:49;;;;;;;10.00;3.95;;;;;;;7.39;100.00;100715.97;5096003;28;20035;-76
2022/12/22 10:56:40;;;;;;;10.15;4.90;;;;;;;7.46;100.00;100718.13;5095852;28;20472;-76
2022/12/22 10:59:19;;;;;;;10.48;5.05;;;;;;;7.45;100.00;100724.38;5090766;28;20048;-76
2022/12/22 11:01:45;;;;;;;11.05;5.40;;;;;;;7.46;100.00;100726.06;5077659;28;20089;-76
2022/12/22 11:04:22;;;;;;;10.30;6.18;;;;;;;7.64;100.00;100721.94;5095562;28;20032;-76
2022/12/22 11:06:48;;;;;;;11.50;5.65;;;;;;;7.81;100.00;100723.25;5095721;28;20047;-76
2022/12/22 11:09:13;;;;;;;13.35;6.60;;;;;;;7.86;100.00;100729.00;5077339;28;20151;-76
2022/12/22 11:11:50;;;;;;;10.77;6.80;;;;;;;7.87;100.00;100735.16;5095607;28;20028;-77
2022/12/22 11:14:53;;;;;;;13.38;7.03;;;;;;;7.83;100.00;100734.53;5095942;28;20364;-76
2022/12/22 11:17:24;;;;;;;9.60;6.68;;;;;;;7.66;100.00;100727.09;5096350;28;20028;-76
2022/12/22 11:20:20;;;;;;;12.40;7.40;;;;;;;7.56;100.00;100740.25;5095371;28;20031;-76
2022/12/22 11:22:59;;;;;;;16.48;9.07;;;;;;;7.51;100.00;100745.06;5095391;28;20031;-77
2022/12/22 11:25:45;;;;;;;20.67;10.40;;;;;;;7.26;100.00;100748.81;5095415;28;20024;-77
2022/12/22 11:28:23;;;;;;;20.08;10.70;;;;;;;7.00;100.00;100747.22;5095777;28;20039;-77
2022/12/22 11:31:11;;;;;;;18.98;10.35;;;;;;;6.78;100.00;100748.03;5094871;28;20524;-76
2022/12/22 11:34:11;;;;;;;23.95;11.35;;;;;;;6.64;100.00;100737.63;5095391;28;20032;-76
2022/12/22 11:36:39;;;;;;;22.58;11.88;;;;;;;6.43;100.00;100740.94;5095601;28;20463;-77
2022/12/22 11:39:12;;;;;;;23.90;11.75;;;;;;;6.45;100.00;100738.16;5095181;28;20077;-75
2022/12/22 11:41:58;;;;;;;22.77;11.93;;;;;;;6.30;100.00;100746.31;5095168;28;20042;-76
2022/12/22 11:44:44;;;;;;;25.15;11.35;;;;;;;6.19;100.00;100746.25;5094782;28;20520;-76
2022/12/22 11:47:37;;;;;;;19.75;9.15;;;;;;;6.16;100.00;100742.00;5094689;28;20058;-75
2022/12/22 11:50:20;;;;;;;26.02;10.15;;;;;;;6.13;100.00;100739.59;5094688;28;20016;-76
2022/12/22 11:52:51;;;;;;;21.80;9.50;;;;;;;6.08;100.00;100725.06;5094911;28;20099;-75
2022/12/22 11:55:41;;;;;;;16.40;8.55;;;;;;;6.06;100.00;100725.19;5094781;28;20035;-79
2022/12/22 11:58:30;;;;;;;17.92;8.20;;;;;;;6.05;100.00;100720.84;5094477;28;20047;-76
2022/12/22 12:01:21;;;;;;;12.75;7.60;;;;;;;6.01;100.00;100722.03;5094303;28;20028;-77
2022/12/22 12:04:03;;;;;;;17.27;8.30;;;;;;;5.96;100.00;100713.56;5094749;28;20051;-77
2022/12/22 12:06:40;;;;;;;13.07;8.35;;;;;;;5.96;100.00;100718.84;5094622;28;20031;-78
2022/12/22 12:09:13;;;;;;;19.88;8.52;;;;;;;5.93;100.00;100717.28;5094269;28;20037;-78
2022/12/22 12:11:47;;;;;;;15.73;8.30;;;;;;;5.98;100.00;100716.97;5076692;28;20368;-77
2022/12/22 12:14:50;;;;;;;15.38;8.82;;;;;;;5.96;100.00;100708.28;5094001;28;20044;-77
2022/12/22 12:17:46;;;;;;;17.23;8.35;;;;;;;5.97;100.00;100699.41;5093979;28;20024;-77
2022/12/22 12:20:32;;;;;;;19.02;9.07;;;;;;;6.02;100.00;100689.38;5094180;28;20104;-78
2022/12/22 12:23:03;;;;;;;25.25;10.80;;;;;;;6.07;100.00;100691.69;5093995;28;20032;-77
2022/12/22 12:25:42;;;;;;;22.85;11.07;;;;;;;6.05;100.00;100697.06;5094288;28;20067;-77
2022/12/22 12:28:45;;;;;;;17.88;10.38;;;;;;;6.06;100.00;100685.56;5093728;28;20044;-77
2022/12/22 12:31:14;;;;;;;24.02;11.75;;;;;;;6.11;100.00;100690.50;5093942;28;20031;-77
2022/12/22 12:33:51;;;;;;;24.52;13.20;;;;;;;6.14;100.00;100688.47;5093857;28;20024;-77
2022/12/22 12:36:28;;;;;;;23.02;13.52;;;;;;;6.19;100.00;100693.41;5075635;28;20399;-78
2022/12/22 12:39:05;;;;;;;26.63;13.95;;;;;;;6.23;100.00;100694.88;5094034;28;20085;-78
2022/12/22 12:42:12;;;;;;;21.90;13.40;;;;;;;6.26;100.00;100688.50;5094019;28;20024;-79
2022/12/22 12:44:38;;;;;;;26.10;14.55;;;;;;;6.26;100.00;100692.00;5093677;28;20095;-78
2022/12/22 12:47:21;;;;;;;22.83;13.95;;;;;;;6.33;100.00;100690.56;5093640;28;20129;-77
2022/12/22 12:50:09;;;;;;;23.40;13.88;;;;;;;6.39;100.00;100688.41;5093693;28;20032;-76
2022/12/22 12:52:38;;;;;;;25.98;14.77;;;;;;;6.41;100.00;100683.88;5093675;28;20110;-76
2022/12/22 12:55:29;;;;;;;26.10;14.02;;;;;;;6.45;100.00;100682.66;5093246;28;20089;-77
2022/12/22 12:57:56;;;;;;;;;;;;;;;6.44;100.00;100681.00;5094322;28;20031;-77
2022/12/22 13:00:36;;;;;;;24.50;14.73;;;;;;;6.35;100.00;100680.72;5093941;28;20006;-77
2022/12/22 13:03:08;;;;;;;28.52;14.82;;;;;;;6.31;100.00;100675.78;5093337;28;20028;-75
2022/12/22 13:05:52;;;;;;;26.67;15.13;;;;;;;6.33;100.00;100665.97;5093570;28;20027;-75
2022/12/22 13:08:29;;;;;;;29.95;14.90;;;;;;;6.37;100.00;100669.19;5093431;28;20115;-77
2022/12/22 13:10:54;;;;;;;31.35;16.42;;;;;;;6.40;100.00;100669.81;5093807;28;20186;-77
2022/12/22 13:13:25;;;;;;;28.90;15.63;;;;;;;6.41;100.00;100660.91;5093554;28;20063;-76
2022/12/22 13:15:59;;;;;;;29.33;15.15;;;;;;;6.42;100.00;100661.75;5093082;28;20036;-77
2022/12/22 13:18:25;;;;;;;28.63;15.63;;;;;;;6.49;100.00;100657.69;5093432;28;20028;-76
2022/12/22 13:21:07;;;;;;;32.80;15.93;;;;;;;6.50;100.00;100659.38;5092854;28;20222;-77
2022/12/22 13:23:38;;;;;;;25.73;15.00;;;;;;;6.55;100.00;100641.34;5093375;28;20039;-77
2022/12/22 13:26:13;;;;;;;29.23;15.90;;;;;;;6.60;100.00;100641.88;5093030;28;20503;-77
2022/12/22 13:28:42;;;;;;;31.08;16.30;;;;;;;6.66;100.00;100646.69;5093166;28;20028;-77
2022/12/22 13:31:51;;;;;;;35.28;15.73;;;;;;;6.68;100.00;100631.53;5096783;28;20081;-77
2022/12/22 13:34:41;;;;;;;29.25;15.80;;;;;;;6.75;100.00;100620.47;5049171;28;20040;-77
2022/12/22 13:37:20;;;;;;;26.38;15.43;;;;;;;6.82;100.00;100617.25;5097459;28;20043;-77
2022/12/22 13:40:44;;;;;;;31.60;16.77;;;;;;;6.94;100.00;100622.50;5097044;28;20028;-77
2022/12/22 13:43:15;;;;;;;31.38;15.50;;;;;;;6.99;100.00;100618.56;4994257;28;20491;-77
2022/12/22 13:45:47;;;;;;;29.80;15.90;;;;;;;7.03;100.00;100622.66;4994990;28;20109;-78
2022/12/22 13:48:25;;;;;;;32.03;16.42;;;;;;;7.04;100.00;100615.53;5064375;28;20139;-77
2022/12/22 13:50:57;;;;;;;27.83;16.00;;;;;;;7.04;100.00;100608.44;5097020;28;20032;-76
2022/12/22 13:53:37;;;;;;;28.35;15.70;;;;;;;7.07;100.00;100610.84;5097522;28;20482;-75
2022/12/22 13:56:33;;;;;;;29.23;15.95;;;;;;;6.99;100.00;100602.69;5096881;28;20140;-77
2022/12/22 13:59:00;;;;;;;34.88;16.63;;;;;;;6.95;100.00;100610.97;5088545;28;20128;-77
2022/12/22 14:01:26;;;;;;;28.35;16.10;;;;;;;6.90;100.00;100611.34;5096965;28;20077;-77
2022/12/22 14:04:02;;;;;;;29.70;16.42;;;;;;;6.84;100.00;100610.03;5096735;28;20036;-77
2022/12/22 14:06:39;;;;;;;29.27;16.83;;;;;;;6.79;100.00;100598.13;5097160;28;20031;-78
2022/12/22 14:09:17;;;;;;;30.17;17.00;;;;;;;6.74;100.00;100597.66;5096728;28;20031;-77
2022/12/22 14:12:01;;;;;;;33.50;17.13;;;;;;;6.71;100.00;100596.06;5096576;28;20452;-77
2022/12/22 14:14:38;;;;;;;34.63;17.70;;;;;;;6.68;100.00;100585.75;5096420;28;20028;-77
2022/12/22 14:17:13;;;;;;;39.53;18.77;;;;;;;6.66;100.00;100577.09;5096584;28;20103;-77
2022/12/22 14:19:38;;;;;;;32.25;17.02;;;;;;;6.63;100.00;100572.06;5096538;28;20035;-75
2022/12/22 14:22:08;;;;;;;32.65;17.25;;;;;;;6.61;100.00;100573.97;5096186;28;20036;-77
2022/12/22 14:24:42;;;;;;;34.50;19.02;;;;;;;6.60;100.00;100580.19;5096382;28;20086;-74
2022/12/22 14:27:23;;;;;;;35.40;18.88;;;;;;;6.58;100.00;100574.19;5096287;28;20028;-74
2022/12/22 14:29:49;;;;;;;37.53;18.73;;;;;;;6.56;100.00;100563.75;5096124;28;20036;-76
2022/12/22 14:32:41;;;;;;;33.33;16.85;;;;;;;6.53;100.00;100564.81;5077813;28;20058;-76
2022/12/22 14:35:20;;;;;;;30.27;16.60;;;;;;;6.51;100.00;100561.47;5096569;28;20124;-76
2022/12/22 14:37:53;;;;;;;33.22;17.58;;;;;;;6.48;100.00;100558.22;5096114;28;20032;-75
2022/12/22 14:40:35;;;;;;;34.97;17.65;;;;;;;6.45;100.00;100558.44;5077176;28;20059;-75
2022/12/22 14:43:03;;;;;;;37.97;18.25;;;;;;;6.41;100.00;100555.22;5095748;28;20032;-75
2022/12/22 14:45:29;;;;;;;36.13;17.98;;;;;;;6.38;100.00;100558.09;5095631;28;20111;-74
2022/12/22 14:47:55;;;;;;;41.25;19.73;;;;;;;6.35;100.00;100553.88;5096105;28;20038;-74
2022/12/22 14:50:26;;;;;;;41.85;19.20;;;;;;;6.33;100.00;100558.44;5095605;28;20036;-74
2022/12/22 14:52:57;;;;;;;38.22;19.08;;;;;;;6.31;100.00;100549.78;5095547;28;20032;-74
2022/12/22 14:55:27;;;;;;;39.33;19.77;;;;;;;6.30;100.00;100547.25;5095963;28;20034;-74
2022/12/22 14:57:58;;;;;;;38.92;19.50;;;;;;;6.27;100.00;100542.22;5095532;28;20032;-74
2022/12/22 15:00:23;;;;;;;39.25;18.40;;;;;;;6.26;100.00;100540.56;5095496;28;20036;-74
2022/12/22 15:03:03;;;;;;;39.40;20.25;;;;;;;6.26;100.00;100532.63;5095512;28;20032;-75
2022/12/22 15:05:34;;;;;;;44.30;20.63;;;;;;;6.24;100.00;100539.81;5095908;28;20054;-75
2022/12/22 15:08:00;;;;;;;49.83;21.92;;;;;;;6.22;100.00;100536.44;5095868;28;20020;-75
2022/12/22 15:10:32;;;;;;;46.13;21.20;;;;;;;6.21;100.00;100529.47;5094946;28;20044;-75
2022/12/22 15:13:03;;;;;;;43.42;20.30;;;;;;;6.21;100.00;100526.84;5094939;28;20504;-74